Terminal Aerodrome Forecast
Issued by NWS

Home | Current Version | Previous Version | Text Only | Print | Product List | Glossary On
Versions: 1 2 3 4 5 6 7 8 9 10 11 12 13 14 15 16
000
FTUS46 KMTR 260500
TAFSNS
TAF
KSNS 260529Z 2606/2706 28005KT P6SM SKC
     FM260900 10005KT P6SM SKC
     FM262100 30009KT P6SM SKC
     FM270300 00000KT P6SM SKC=

USA.gov is the U.S. government's official web portal to all federal, state and local government web resources and services.